Lakeside Marblehead, Ohio
Current Conditions -  °F | °C
As of 11:33 PM on Thursday 18 Dec 2014 (Local Time) from KPCW Reporting Station
Overcast Overcast  
Wind Chill: 24°   Ceiling: 2500
Heat Index: 32°   Visibility: 8mi
Dew Point: 28°   Wind: 9mph
Humidity: 87%   Direction: 270°W
Pressure: 30.19"   Gusts: NA
Location:  41.53°N, 82.76°W
Report Text: KPCW 190433Z AUTO 27008KT 8SM SCT019 BKN025 OVC032 00/M02 A3019 RMK AO2 $
Loading
Personal Weather Stations






























Interactive Weather Map New forecast layout! Learn more

10-Day Weather Forecast

Advertisements
Track Severe Weather on mobile